Time;durP1;ratioP1;P1;durP2;ratioP2;P2;SDS_P1;SDS_P2;PMS_P1;PMS_P2;Temp;Humidity;BMP_temperature;BMP_pressure;BME280_temperature;BME280_humidity;BME280_pressure;Samples;Min_cycle;Max_cycle;Signal;HPM_P1;HPM_P2
2023/03/10 00:01:03;;;;;;;;;;;;;;;;;;4960008;28;19921;-65
2023/03/10 00:03:31;;;;;;;;;;;;;;;;;;4982511;28;19921;-66
2023/03/10 00:05:56;;;;;;;;;;;;;;;;;;4983948;28;19929;-66
2023/03/10 00:08:22;;;;;;;;;;;;;;;;;;4982153;28;20568;-66
2023/03/10 00:10:47;;;;;;;;;;;;;;;;;;4970077;28;19929;-66
2023/03/10 00:13:12;;;;;;;;;;;;;;;;;;4983138;28;20015;-67
2023/03/10 00:15:40;;;;;;;;;;;;;;;;;;4967084;28;19926;-67
2023/03/10 00:18:06;;;;;;;;;;;;;;;;;;4979061;28;19921;-63
2023/03/10 00:20:34;;;;;;;;;;;;;;;;;;4981899;28;19965;-68
2023/03/10 00:22:59;;;;;;;;;;;;;;;;;;4982525;28;19928;-66
2023/03/10 00:25:25;;;;;;;;;;;;;;;;;;4982993;28;20289;-67
2023/03/10 00:27:51;;;;;;;;;;;;;;;;;;4982366;28;19929;-67
2023/03/10 00:30:16;;;;;;;;;;;;;;;;;;4971241;28;19917;-67
2023/03/10 00:32:41;;;;;;;;;;;;;;;;;;4964182;28;19936;-65
2023/03/10 00:35:07;;;;;;;;;;;;;;;;;;4979622;28;20016;-67
2023/03/10 00:37:32;;;;;;;;;;;;;;;;;;4981676;28;19928;-66
2023/03/10 00:39:57;;;;;;;;;;;;;;;;;;4976259;28;20000;-69
2023/03/10 00:42:25;;;;;;;;;;;;;;;;;;4978149;28;20657;-65
2023/03/10 00:44:50;;;;;;;;;;;;;;;;;;4980988;28;19937;-64
2023/03/10 00:47:16;;;;;;;;;;;;;;;;;;4965148;28;19918;-66
2023/03/10 00:49:41;;;;;;;;;;;;;;;;;;4979955;28;21379;-67
2023/03/10 00:52:06;;;;;;;;;;;;;;;;;;4982972;28;20226;-66
2023/03/10 00:54:32;;;;;;;;;;;;;;;;;;4980523;28;20415;-67
2023/03/10 00:56:57;;;;;;;;;;;;;;;;;;4981534;28;19922;-66
2023/03/10 00:59:22;;;;;;;;;;;;;;;;;;4980230;28;19918;-66
2023/03/10 01:01:48;;;;;;;;;;;;;;;;;;4978476;28;19932;-65
2023/03/10 01:04:17;;;;;;;;;;;;;;;;;;4966704;28;19944;-65
2023/03/10 01:06:44;;;;;;;;;;;;;;;;;;4970474;28;19926;-66
2023/03/10 01:09:11;;;;;;;;;;;;;;;;;;4986006;28;19917;-68
2023/03/10 01:11:37;;;;;;;;;;;;;;;;;;4966290;28;19960;-67
2023/03/10 01:14:02;;;;;;;;;;;;;;;;;;4979036;28;19921;-67
2023/03/10 01:16:28;;;;;;;;;;;;;;;;;;4969485;28;19921;-68
2023/03/10 01:18:53;;;;;;;;;;;;;;;;;;4983411;28;20272;-67
2023/03/10 01:21:22;;;;;;;;;;;;;;;;;;4983943;28;20518;-67
2023/03/10 01:23:50;;;;;;;;;;;;;;;;;;4983188;28;19925;-69
2023/03/10 01:26:16;;;;;;;;;;;;;;;;;;4987883;28;20135;-66
2023/03/10 01:28:42;;;;;;;;;;;;;;;;;;4984661;28;19956;-68
2023/03/10 01:31:07;;;;;;;;;;;;;;;;;;4969966;28;20381;-68
2023/03/10 01:33:34;;;;;;;;;;;;;;;;;;4982260;28;19934;-67
2023/03/10 01:36:02;;;;;;;;;;;;;;;;;;4983036;28;19944;-67
2023/03/10 01:38:29;;;;;;;;;;;;;;;;;;4985751;28;19921;-68
2023/03/10 01:40:57;;;;;;;;;;;;;;;;;;4981886;28;21482;-67
2023/03/10 01:43:22;;;;;;;;;;;;;;;;;;4982956;28;19924;-66
2023/03/10 01:45:48;;;;;;;;;;;;;;;;;;4982551;28;19918;-68
2023/03/10 01:48:15;;;;;;;;;;;;;;;;;;4984002;28;19922;-68
2023/03/10 01:50:43;;;;;;;;;;;;;;;;;;4984092;28;19929;-66
2023/03/10 01:53:10;;;;;;;;;;;;;;;;;;4985153;28;19925;-65
2023/03/10 01:55:36;;;;;;;;;;;;;;;;;;4982005;28;19929;-65
2023/03/10 01:58:04;;;;;;;;;;;;;;;;;;4982584;28;19933;-66
2023/03/10 02:00:29;;;;;;;;;;;;;;;;;;4981252;28;19922;-66
2023/03/10 02:02:55;;;;;;;;;;;;;;;;;;4982935;28;19917;-67
2023/03/10 02:05:20;;;;;;;;;;;;;;;;;;4968753;28;19980;-67
2023/03/10 02:07:47;;;;;;;;;;;;;;;;;;4970124;28;20263;-67
2023/03/10 02:10:13;;;;;;;;;;;;;;;;;;4982149;28;19929;-67
2023/03/10 02:12:42;;;;;;;;;;;;;;;;;;4986812;28;19917;-67
2023/03/10 02:15:07;;;;;;;;;;;;;;;;;;4968147;28;20048;-68
2023/03/10 02:17:33;;;;;;;;;;;;;;;;;;4982705;28;20915;-67
2023/03/10 02:19:58;;;;;;;;;;;;;;;;;;4984551;28;19917;-67
2023/03/10 02:22:23;;;;;;;;;;;;;;;;;;4982744;28;19956;-68
2023/03/10 02:24:49;;;;;;;;;;;;;;;;;;4985462;28;19925;-68
2023/03/10 02:27:14;;;;;;;;;;;;;;;;;;4968570;28;20211;-67
2023/03/10 02:29:40;;;;;;;;;;;;;;;;;;4962989;28;19967;-68
2023/03/10 02:32:07;;;;;;;;;;;;;;;;;;4979957;28;20295;-68
2023/03/10 02:34:38;;;;;;;;;;;;;;;;;;4984695;28;19921;-67
2023/03/10 02:37:06;;;;;;;;;;;;;;;;;;4986190;28;19917;-66
2023/03/10 02:39:34;;;;;;;;;;;;;;;;;;4968740;28;19932;-67
2023/03/10 02:42:00;;;;;;;;;;;;;;;;;;4984717;28;20531;-64
2023/03/10 02:44:26;;;;;;;;;;;;;;;;;;4978818;28;19926;-67
2023/03/10 02:46:52;;;;;;;;;;;;;;;;;;4984670;28;19975;-67
2023/03/10 02:49:19;;;;;;;;;;;;;;;;;;4983686;28;19959;-66
2023/03/10 02:51:46;;;;;;;;;;;;;;;;;;4986071;28;19924;-65
2023/03/10 02:54:11;;;;;;;;;;;;;;;;;;4981524;28;19918;-66
2023/03/10 02:56:36;;;;;;;;;;;;;;;;;;4991881;28;19917;-66
2023/03/10 02:59:05;;;;;;;;;;;;;;;;;;4983691;28;19933;-65
2023/03/10 03:01:30;;;;;;;;;;;;;;;;;;4980991;28;20077;-66
2023/03/10 03:03:55;;;;;;;;;;;;;;;;;;4981606;28;19925;-66
2023/03/10 03:06:21;;;;;;;;;;;;;;;;;;4983057;28;20426;-66
2023/03/10 03:08:47;;;;;;;;;;;;;;;;;;4981952;28;19929;-67
2023/03/10 03:11:13;;;;;;;;;;;;;;;;;;4986669;28;19968;-66
2023/03/10 03:13:38;;;;;;;;;;;;;;;;;;4979420;28;19941;-65
2023/03/10 03:16:03;;;;;;;;;;;;;;;;;;4977212;28;20028;-66
2023/03/10 03:18:28;;;;;;;;;;;;;;;;;;4980480;28;19921;-66
2023/03/10 03:20:54;;;;;;;;;;;;;;;;;;4985155;28;20369;-66
2023/03/10 03:23:19;;;;;;;;;;;;;;;;;;4984951;28;20130;-66
2023/03/10 03:25:44;;;;;;;;;;;;;;;;;;4988607;28;19925;-66
2023/03/10 03:28:12;;;;;;;;;;;;;;;;;;4968759;28;20032;-65
2023/03/10 03:30:40;;;;;;;;;;;;;;;;;;4981996;28;19925;-66
2023/03/10 03:33:05;;;;;;;;;;;;;;;;;;4967433;28;20610;-65
2023/03/10 03:35:33;;;;;;;;;;;;;;;;;;4984212;28;20270;-66
2023/03/10 03:37:58;;;;;;;;;;;;;;;;;;4966969;28;19925;-65
2023/03/10 03:40:27;;;;;;;;;;;;;;;;;;4987273;28;20384;-66
2023/03/10 03:42:52;;;;;;;;;;;;;;;;;;4981500;28;19921;-65
2023/03/10 03:45:17;;;;;;;;;;;;;;;;;;4966406;28;19921;-65
2023/03/10 03:47:43;;;;;;;;;;;;;;;;;;4969374;28;20183;-65
2023/03/10 03:50:08;;;;;;;;;;;;;;;;;;4982307;28;20091;-66
2023/03/10 03:52:33;;;;;;;;;;;;;;;;;;4968328;28;19921;-65
2023/03/10 03:54:59;;;;;;;;;;;;;;;;;;4979146;28;20016;-64
2023/03/10 03:57:24;;;;;;;;;;;;;;;;;;4986367;28;19941;-65
2023/03/10 03:59:49;;;;;;;;;;;;;;;;;;4980200;28;20020;-64
2023/03/10 04:02:15;;;;;;;;;;;;;;;;;;4978929;28;20024;-66
2023/03/10 04:04:40;;;;;;;;;;;;;;;;;;4981498;28;20526;-65
2023/03/10 04:07:05;;;;;;;;;;;;;;;;;;4980474;28;20140;-65
2023/03/10 04:09:31;;;;;;;;;;;;;;;;;;4984766;28;20828;-65
2023/03/10 04:11:56;;;;;;;;;;;;;;;;;;4980504;28;19933;-63
2023/03/10 04:14:22;;;;;;;;;;;;;;;;;;4979990;28;19925;-65
2023/03/10 04:16:47;;;;;;;;;;;;;;;;;;4978953;28;19956;-66
2023/03/10 04:19:12;;;;;;;;;;;;;;;;;;4981366;28;19921;-66
2023/03/10 04:21:38;;;;;;;;;;;;;;;;;;4979373;28;19980;-66
2023/03/10 04:24:03;;;;;;;;;;;;;;;;;;4981884;28;19926;-66
2023/03/10 04:26:28;;;;;;;;;;;;;;;;;;4981839;28;20128;-66
2023/03/10 04:28:54;;;;;;;;;;;;;;;;;;4978930;28;19925;-66
2023/03/10 04:31:20;;;;;;;;;;;;;;;;;;4980068;28;20098;-66
2023/03/10 04:33:45;;;;;;;;;;;;;;;;;;4976959;28;20430;-66
2023/03/10 04:36:17;;;;;;;;;;;;;;;;;;4985135;28;19963;-66
2023/03/10 04:38:42;;;;;;;;;;;;;;;;;;4966959;28;19922;-66
2023/03/10 04:41:10;;;;;;;;;;;;;;;;;;4977582;28;20527;-65
2023/03/10 04:43:36;;;;;;;;;;;;;;;;;;4978978;28;20478;-66
2023/03/10 04:46:01;;;;;;;;;;;;;;;;;;4967911;28;19917;-66
2023/03/10 04:48:29;;;;;;;;;;;;;;;;;;4963475;28;20194;-67
2023/03/10 04:50:57;;;;;;;;;;;;;;;;;;4980423;28;20019;-67
2023/03/10 04:53:26;;;;;;;;;;;;;;;;;;4978419;28;20647;-67
2023/03/10 04:55:51;;;;;;;;;;;;;;;;;;4981614;28;19921;-66
2023/03/10 04:58:17;;;;;;;;;;;;;;;;;;4976606;28;20460;-65
2023/03/10 05:00:42;;;;;;;;;;;;;;;;;;4984453;28;19921;-66
2023/03/10 05:03:08;;;;;;;;;;;;;;;;;;4980117;28;19925;-66
2023/03/10 05:05:33;;;;;;;;;;;;;;;;;;4967500;28;19969;-67
2023/03/10 05:07:58;;;;;;;;;;;;;;;;;;4982135;28;19928;-66
2023/03/10 05:10:24;;;;;;;;;;;;;;;;;;4964092;28;21497;-66
2023/03/10 05:12:49;;;;;;;;;;;;;;;;;;4965581;28;19948;-66
2023/03/10 05:15:15;;;;;;;;;;;;;;;;;;4982118;28;19925;-66
2023/03/10 05:17:43;;;;;;;;;;;;;;;;;;4985932;28;19921;-66
2023/03/10 05:20:10;;;;;;;;;;;;;;;;;;4982178;28;19965;-66
2023/03/10 05:22:36;;;;;;;;;;;;;;;;;;4988767;28;19963;-66
2023/03/10 05:25:01;;;;;;;;;;;;;;;;;;4984255;28;19925;-66
2023/03/10 05:27:27;;;;;;;;;;;;;;;;;;4978667;28;19932;-64
2023/03/10 05:29:52;;;;;;;;;;;;;;;;;;4987795;28;19929;-65
2023/03/10 05:32:20;;;;;;;;;;;;;;;;;;4982288;28;19926;-65
2023/03/10 05:34:48;;;;;;;;;;;;;;;;;;4985349;28;20368;-64
2023/03/10 05:37:13;;;;;;;;;;;;;;;;;;4975172;28;19927;-62
2023/03/10 05:39:38;;;;;;;;;;;;;;;;;;4980702;28;20464;-64
2023/03/10 05:42:04;;;;;;;;;;;;;;;;;;5000681;28;20008;-64
2023/03/10 05:44:29;;;;;;;;;;;;;;;;;;4985679;28;20040;-63
2023/03/10 05:46:54;;;;;;;;;;;;;;;;;;4983188;28;19925;-63
2023/03/10 05:49:20;;;;;;;;;;;;;;;;;;4982298;28;19976;-64
2023/03/10 05:51:45;;;;;;;;;;;;;;;;;;4979261;28;19957;-63
2023/03/10 05:54:10;;;;;;;;;;;;;;;;;;4977716;28;19921;-63
2023/03/10 05:56:38;;;;;;;;;;;;;;;;;;4964288;28;20036;-65
2023/03/10 05:59:06;;;;;;;;;;;;;;;;;;4983945;28;20134;-64
2023/03/10 06:01:32;;;;;;;;;;;;;;;;;;4982304;28;19922;-64
2023/03/10 06:04:00;;;;;;;;;;;;;;;;;;4982303;28;19933;-66
2023/03/10 06:06:28;;;;;;;;;;;;;;;;;;4999077;28;19922;-66
2023/03/10 06:08:53;;;;;;;;;;;;;;;;;;4979373;28;19921;-67
2023/03/10 06:11:18;;;;;;;;;;;;;;;;;;4986027;28;19970;-66
2023/03/10 06:13:47;;;;;;;;;;;;;;;;;;4970786;28;19918;-67
2023/03/10 06:16:12;;;;;;;;;;;;;;;;;;4982392;28;19921;-69
2023/03/10 06:21:56;;;;;;;;;;;;;;;;;;4983517;28;20116;-68
2023/03/10 06:24:24;;;;;;;;;;;;;;;;;;4969277;28;19926;-69
2023/03/10 06:26:49;;;;;;;;;;;;;;;;;;4982149;28;19945;-76
2023/03/10 06:29:15;;;;;;;;;;;;;;;;;;4984916;28;20574;-77
2023/03/10 06:31:40;;;;;;;;;;;;;;;;;;4984824;28;19963;-73
2023/03/10 06:34:06;;;;;;;;;;;;;;;;;;4987863;28;19937;-72
2023/03/10 06:36:32;;;;;;;;;;;;;;;;;;4969325;28;19993;-71
2023/03/10 06:38:57;;;;;;;;;;;;;;;;;;4979679;28;20308;-68
2023/03/10 06:41:27;;;;;;;;;;;;;;;;;;4986611;28;19921;-69
2023/03/10 06:43:55;;;;;;;;;;;;;;;;;;4969139;28;19933;-67
2023/03/10 06:46:24;;;;;;;;;;;;;;;;;;4981688;28;19921;-69
2023/03/10 06:48:54;;;;;;;;;;;;;;;;;;4967420;28;19960;-68
2023/03/10 06:51:22;;;;;;;;;;;;;;;;;;4984067;28;19922;-67
2023/03/10 06:53:59;;;;;;;;;;;;;;;;;;4978738;28;19964;-63
2023/03/10 06:56:27;;;;;;;;;;;;;;;;;;4968477;28;19925;-65
2023/03/10 06:58:52;;;;;;;;;;;;;;;;;;4985304;28;20389;-65
2023/03/10 07:01:20;;;;;;;;;;;;;;;;;;4969434;28;20273;-64
2023/03/10 07:03:49;;;;;;;;;;;;;;;;;;4983521;28;20361;-65
2023/03/10 07:06:16;;;;;;;;;;;;;;;;;;4983610;28;20169;-66
2023/03/10 07:08:41;;;;;;;;;;;;;;;;;;4968736;28;20050;-64
2023/03/10 07:11:09;;;;;;;;;;;;;;;;;;4968384;28;20278;-65
2023/03/10 07:13:35;;;;;;;;;;;;;;;;;;4962213;28;21776;-63
2023/03/10 07:16:02;;;;;;;;;;;;;;;;;;4980726;28;19922;-65
2023/03/10 07:18:28;;;;;;;;;;;;;;;;;;4981386;28;19924;-64
2023/03/10 07:20:58;;;;;;;;;;;;;;;;;;4983780;28;19930;-69
2023/03/10 07:23:26;;;;;;;;;;;;;;;;;;4989650;28;19922;-64
2023/03/10 07:25:52;;;;;;;;;;;;;;;;;;4982268;28;19922;-64
2023/03/10 07:28:20;;;;;;;;;;;;;;;;;;4983626;28;19921;-64
2023/03/10 07:30:48;;;;;;;;;;;;;;;;;;4980309;28;20424;-64
2023/03/10 07:33:13;;;;;;;;;;;;;;;;;;4984418;28;20554;-64
2023/03/10 07:35:49;;;;;;;;;;;;;;;;;;4966103;28;20000;-65
2023/03/10 07:38:15;;;;;;;;;;;;;;;;;;4982418;28;20011;-68
2023/03/10 07:40:40;;;;;;;;;;;;;;;;;;4979523;28;20386;-76
2023/03/10 07:43:05;;;;;;;;;;;;;;;;;;4984290;28;20703;-67
2023/03/10 07:45:34;;;;;;;;;;;;;;;;;;4981948;28;20326;-65
2023/03/10 07:47:59;;;;;;;;;;;;;;;;;;4983889;28;19924;-66
2023/03/10 07:53:17;;;;;;;;;;;;;;;;;;4979126;28;20408;-66
2023/03/10 07:55:43;;;;;;;;;;;;;;;;;;4983579;28;20073;-66
2023/03/10 07:58:08;;;;;;;;;;;;;;;;;;4976658;28;19987;-65
2023/03/10 08:00:33;;;;;;;;;;;;;;;;;;4966064;28;20052;-67
2023/03/10 08:02:59;;;;;;;;;;;;;;;;;;4982805;28;19952;-67
2023/03/10 08:05:26;;;;;;;;;;;;;;;;;;4970655;28;19926;-67
2023/03/10 08:07:51;;;;;;;;;;;;;;;;;;4982246;28;19917;-68
2023/03/10 08:10:17;;;;;;;;;;;;;;;;;;4964896;28;20064;-68
2023/03/10 08:12:43;;;;;;;;;;;;;;;;;;4982208;28;20357;-68
2023/03/10 08:15:09;;;;;;;;;;;;;;;;;;4981520;28;19917;-68
2023/03/10 08:17:35;;;;;;;;;;;;;;;;;;4980166;28;19940;-69
2023/03/10 08:20:00;;;;;;;;;;;;;;;;;;4980640;28;19921;-71
2023/03/10 08:22:26;;;;;;;;;;;;;;;;;;4980652;28;20045;-72
2023/03/10 08:24:51;;;;;;;;;;;;;;;;;;4978592;28;19921;-73
2023/03/10 08:27:16;;;;;;;;;;;;;;;;;;4981090;28;20281;-75
2023/03/10 08:29:42;;;;;;;;;;;;;;;;;;4979979;28;19925;-71
2023/03/10 08:32:08;;;;;;;;;;;;;;;;;;4981011;28;20675;-71
2023/03/10 08:34:36;;;;;;;;;;;;;;;;;;4979906;28;19921;-76
2023/03/10 08:37:04;;;;;;;;;;;;;;;;;;4981379;28;19951;-71
2023/03/10 08:39:30;;;;;;;;;;;;;;;;;;4964746;28;20326;-73
2023/03/10 08:41:55;;;;;;;;;;;;;;;;;;4985251;28;19922;-73
2023/03/10 08:44:21;;;;;;;;;;;;;;;;;;4965854;28;19922;-74
2023/03/10 08:46:49;;;;;;;;;;;;;;;;;;4979487;28;19925;-69
2023/03/10 08:49:14;;;;;;;;;;;;;;;;;;4980103;28;19922;-73
2023/03/10 08:51:45;;;;;;;;;;;;;;;;;;4968719;28;20102;-72
2023/03/10 08:54:10;;;;;;;;;;;;;;;;;;4964526;28;20361;-70
2023/03/10 08:56:35;;;;;;;;;;;;;;;;;;4967947;28;20390;-71
2023/03/10 08:59:03;;;;;;;;;;;;;;;;;;4983763;28;20487;-72
2023/03/10 09:01:31;;;;;;;;;;;;;;;;;;4979229;28;20017;-69
2023/03/10 09:03:56;;;;;;;;;;;;;;;;;;4979751;28;19924;-71
2023/03/10 09:06:21;;;;;;;;;;;;;;;;;;4966033;28;19917;-73
2023/03/10 09:08:49;;;;;;;;;;;;;;;;;;4981881;28;20049;-69
2023/03/10 09:11:14;;;;;;;;;;;;;;;;;;4980125;28;20079;-69
2023/03/10 09:13:42;;;;;;;;;;;;;;;;;;4983123;28;19928;-71
2023/03/10 09:16:12;;;;;;;;;;;;;;;;;;4980752;28;20236;-69
2023/03/10 09:18:40;;;;;;;;;;;;;;;;;;4966121;28;19921;-70
2023/03/10 09:21:07;;;;;;;;;;;;;;;;;;4982949;28;19919;-71
2023/03/10 09:23:38;;;;;;;;;;;;;;;;;;4980426;28;19927;-68
2023/03/10 09:26:03;;;;;;;;;;;;;;;;;;4980359;28;19932;-67
2023/03/10 09:28:29;;;;;;;;;;;;;;;;;;4980144;28;19925;-70
2023/03/10 09:30:57;;;;;;;;;;;;;;;;;;4983956;28;19941;-69
2023/03/10 09:33:22;;;;;;;;;;;;;;;;;;4959191;28;19972;-69
2023/03/10 09:35:48;;;;;;;;;;;;;;;;;;4964523;28;19975;-68
2023/03/10 09:38:13;;;;;;;;;;;;;;;;;;4982210;28;19921;-68
2023/03/10 09:40:41;;;;;;;;;;;;;;;;;;4983267;28;19924;-69
2023/03/10 09:43:06;;;;;;;;;;;;;;;;;;4971231;28;19922;-69
2023/03/10 09:45:34;;;;;;;;;;;;;;;;;;4980917;28;20027;-68
2023/03/10 09:48:00;;;;;;;;;;;;;;;;;;4982373;28;20297;-68
2023/03/10 09:50:25;;;;;;;;;;;;;;;;;;4969433;28;19928;-69
2023/03/10 09:56:07;;;;;;;;;;;;;;;;;;4980811;28;20005;-67
2023/03/10 09:58:35;;;;;;;;;;;;;;;;;;4988868;28;20461;-68
2023/03/10 10:01:00;;;;;;;;;;;;;;;;;;4967191;28;20032;-66
2023/03/10 10:03:26;;;;;;;;;;;;;;;;;;4980428;28;19921;-69
2023/03/10 10:05:51;;;;;;;;;;;;;;;;;;4985304;28;20342;-68
2023/03/10 10:08:20;;;;;;;;;;;;;;;;;;4986294;28;19964;-67
2023/03/10 10:10:48;;;;;;;;;;;;;;;;;;4983091;28;20008;-67
2023/03/10 10:13:15;;;;;;;;;;;;;;;;;;4986545;28;19921;-68
2023/03/10 10:15:40;;;;;;;;;;;;;;;;;;4984380;28;20282;-66
2023/03/10 10:18:08;;;;;;;;;;;;;;;;;;4982610;28;20558;-65
2023/03/10 10:20:34;;;;;;;;;;;;;;;;;;4982044;28;19999;-65
2023/03/10 10:22:59;;;;;;;;;;;;;;;;;;4969205;28;20391;-66
2023/03/10 10:25:24;;;;;;;;;;;;;;;;;;4979752;28;19952;-68
2023/03/10 10:27:50;;;;;;;;;;;;;;;;;;4983716;28;19996;-65
2023/03/10 10:30:15;;;;;;;;;;;;;;;;;;4968491;28;19987;-66
2023/03/10 10:32:41;;;;;;;;;;;;;;;;;;4963213;28;19925;-64
2023/03/10 10:35:06;;;;;;;;;;;;;;;;;;4986203;28;20327;-66
2023/03/10 10:37:35;;;;;;;;;;;;;;;;;;4980696;28;20324;-64
2023/03/10 10:40:00;;;;;;;;;;;;;;;;;;4983983;28;19922;-65
2023/03/10 10:42:26;;;;;;;;;;;;;;;;;;4981529;28;20011;-67
2023/03/10 10:44:54;;;;;;;;;;;;;;;;;;4986435;28;20495;-67
2023/03/10 10:47:19;;;;;;;;;;;;;;;;;;4982553;28;20446;-64
2023/03/10 10:49:47;;;;;;;;;;;;;;;;;;4980532;28;20141;-64
2023/03/10 10:52:15;;;;;;;;;;;;;;;;;;4983081;28;19949;-63
2023/03/10 10:54:40;;;;;;;;;;;;;;;;;;4964094;28;19921;-63
2023/03/10 10:57:06;;;;;;;;;;;;;;;;;;4963977;28;19928;-63
2023/03/10 10:59:31;;;;;;;;;;;;;;;;;;4983247;28;20436;-64
2023/03/10 11:01:56;;;;;;;;;;;;;;;;;;4982127;28;19976;-63
2023/03/10 11:04:21;;;;;;;;;;;;;;;;;;4983665;28;19925;-64
2023/03/10 11:06:47;;;;;;;;;;;;;;;;;;4979861;28;19921;-65
2023/03/10 11:09:17;;;;;;;;;;;;;;;;;;4969926;28;20025;-65
2023/03/10 11:11:42;;;;;;;;;;;;;;;;;;4981040;28;20562;-65
2023/03/10 11:14:07;;;;;;;;;;;;;;;;;;4983547;28;19921;-65
2023/03/10 11:16:33;;;;;;;;;;;;;;;;;;4969532;28;19959;-67
2023/03/10 11:18:58;;;;;;;;;;;;;;;;;;4983525;28;19921;-68
2023/03/10 11:21:27;;;;;;;;;;;;;;;;;;4984922;28;19925;-65
2023/03/10 11:23:52;;;;;;;;;;;;;;;;;;4982752;28;19961;-64
2023/03/10 11:26:17;;;;;;;;;;;;;;;;;;4967889;28;20535;-64
2023/03/10 11:28:43;;;;;;;;;;;;;;;;;;4964509;28;19932;-63
2023/03/10 11:31:08;;;;;;;;;;;;;;;;;;4989570;28;19976;-63
2023/03/10 11:33:36;;;;;;;;;;;;;;;;;;4979416;28;20525;-63
2023/03/10 11:36:01;;;;;;;;;;;;;;;;;;4985013;28;19922;-63
2023/03/10 11:38:27;;;;;;;;;;;;;;;;;;4978954;28;19964;-66
2023/03/10 11:40:53;;;;;;;;;;;;;;;;;;4984823;28;19917;-63
2023/03/10 11:43:21;;;;;;;;;;;;;;;;;;4961683;28;20440;-62
2023/03/10 11:45:52;;;;;;;;;;;;;;;;;;4979276;28;20007;-62
2023/03/10 11:48:19;;;;;;;;;;;;;;;;;;4982390;28;20305;-62
2023/03/10 11:50:44;;;;;;;;;;;;;;;;;;4968760;28;19928;-62
2023/03/10 11:53:12;;;;;;;;;;;;;;;;;;4979269;28;19933;-62
2023/03/10 11:55:38;;;;;;;;;;;;;;;;;;4964627;28;19922;-62
2023/03/10 11:58:06;;;;;;;;;;;;;;;;;;4964316;28;20381;-63
2023/03/10 12:00:31;;;;;;;;;;;;;;;;;;4975222;28;19921;-63
2023/03/10 12:02:57;;;;;;;;;;;;;;;;;;4981012;28;19960;-64
2023/03/10 12:05:22;;;;;;;;;;;;;;;;;;4956073;28;19928;-65
2023/03/10 12:07:53;;;;;;;;;;;;;;;;;;4967381;28;19917;-65
2023/03/10 12:10:20;;;;;;;;;;;;;;;;;;4980543;28;19982;-64
2023/03/10 12:12:45;;;;;;;;;;;;;;;;;;4964969;28;19917;-63
2023/03/10 12:15:13;;;;;;;;;;;;;;;;;;4963096;28;19981;-63
2023/03/10 12:17:39;;;;;;;;;;;;;;;;;;4980897;28;20380;-61
2023/03/10 12:20:23;;;;;;;;;;;;;;;;;;4981626;28;19929;-62
2023/03/10 12:22:51;;;;;;;;;;;;;;;;;;4965537;28;20396;-62
2023/03/10 12:25:22;;;;;;;;;;;;;;;;;;4983520;28;19932;-62
2023/03/10 12:27:47;;;;;;;;;;;;;;;;;;4981519;28;19921;-64
2023/03/10 12:30:12;;;;;;;;;;;;;;;;;;4981586;28;20659;-63
2023/03/10 12:32:38;;;;;;;;;;;;;;;;;;4971997;28;19929;-64
2023/03/10 12:35:03;;;;;;;;;;;;;;;;;;4976576;28;20300;-64
2023/03/10 12:37:29;;;;;;;;;;;;;;;;;;4959985;28;20169;-63
2023/03/10 12:39:59;;;;;;;;;;;;;;;;;;4976685;28;19962;-64
2023/03/10 12:42:25;;;;;;;;;;;;;;;;;;4959458;28;20449;-64
2023/03/10 12:44:51;;;;;;;;;;;;;;;;;;4972410;28;19980;-66
2023/03/10 12:47:21;;;;;;;;;;;;;;;;;;4974668;28;20886;-67
2023/03/10 12:49:46;;;;;;;;;;;;;;;;;;4978059;28;19927;-66
2023/03/10 12:52:12;;;;;;;;;;;;;;;;;;4954791;28;19922;-66
2023/03/10 12:54:39;;;;;;;;;;;;;;;;;;4976721;28;19918;-66
2023/03/10 12:57:10;;;;;;;;;;;;;;;;;;4976961;28;20054;-68
2023/03/10 12:59:35;;;;;;;;;;;;;;;;;;4981526;28;20055;-67
2023/03/10 13:02:03;;;;;;;;;;;;;;;;;;4967315;28;19921;-67
2023/03/10 13:04:28;;;;;;;;;;;;;;;;;;4966872;28;19925;-68
2023/03/10 13:06:55;;;;;;;;;;;;;;;;;;4984361;28;19983;-68
2023/03/10 13:09:20;;;;;;;;;;;;;;;;;;4983314;28;19928;-68
2023/03/10 13:11:48;;;;;;;;;;;;;;;;;;4982529;28;19917;-67
2023/03/10 13:17:54;;;;;;;;;;;;;;;;;;4980350;28;20008;-67
2023/03/10 13:20:19;;;;;;;;;;;;;;;;;;4961803;28;20037;-68
2023/03/10 13:22:47;;;;;;;;;;;;;;;;;;4977735;28;20055;-67
2023/03/10 13:25:15;;;;;;;;;;;;;;;;;;4980620;28;19925;-65
2023/03/10 13:27:41;;;;;;;;;;;;;;;;;;4980433;28;20257;-67
2023/03/10 13:30:09;;;;;;;;;;;;;;;;;;4964941;28;20000;-65
2023/03/10 13:32:37;;;;;;;;;;;;;;;;;;4976338;28;19948;-65
2023/03/10 13:35:02;;;;;;;;;;;;;;;;;;4970543;28;20556;-65
2023/03/10 13:37:30;;;;;;;;;;;;;;;;;;4982489;28;20064;-65
2023/03/10 13:40:01;;;;;;;;;;;;;;;;;;4978187;28;19943;-64
2023/03/10 13:45:45;;;;;;;;;;;;;;;;;;4978993;28;20863;-64
2023/03/10 13:48:10;;;;;;;;;;;;;;;;;;4989999;28;19952;-63
2023/03/10 13:50:36;;;;;;;;;;;;;;;;;;4979079;28;20657;-63
2023/03/10 13:53:06;;;;;;;;;;;;;;;;;;4986804;28;20535;-63
2023/03/10 13:55:31;;;;;;;;;;;;;;;;;;4970396;28;20328;-64
2023/03/10 13:58:00;;;;;;;;;;;;;;;;;;4981941;28;19925;-62
2023/03/10 14:00:31;;;;;;;;;;;;;;;;;;4963739;28;19928;-64
2023/03/10 14:02:59;;;;;;;;;;;;;;;;;;4979734;28;19936;-62
2023/03/10 14:05:24;;;;;;;;;;;;;;;;;;4975334;28;20335;-62
2023/03/10 14:07:50;;;;;;;;;;;;;;;;;;4980668;28;19922;-62
2023/03/10 14:10:15;;;;;;;;;;;;;;;;;;4972594;28;20395;-62
2023/03/10 14:12:42;;;;;;;;;;;;;;;;;;4976240;28;19921;-62
2023/03/10 14:15:19;;;;;;;;;;;;;;;;;;4977930;28;19924;-61
2023/03/10 14:17:46;;;;;;;;;;;;;;;;;;4979674;28;20507;-61
2023/03/10 14:20:11;;;;;;;;;;;;;;;;;;4969188;28;19921;-61
2023/03/10 14:22:39;;;;;;;;;;;;;;;;;;4982667;28;19972;-61
2023/03/10 14:25:07;;;;;;;;;;;;;;;;;;4984685;28;19921;-62
2023/03/10 14:27:35;;;;;;;;;;;;;;;;;;4982583;28;20498;-61
2023/03/10 14:30:00;;;;;;;;;;;;;;;;;;4979346;28;19996;-61
2023/03/10 14:32:28;;;;;;;;;;;;;;;;;;4977757;28;19942;-60
2023/03/10 14:34:53;;;;;;;;;;;;;;;;;;4968067;28;20389;-60
2023/03/10 14:37:18;;;;;;;;;;;;;;;;;;4982224;28;20341;-62
2023/03/10 14:39:43;;;;;;;;;;;;;;;;;;4981260;28;20280;-62
2023/03/10 14:42:09;;;;;;;;;;;;;;;;;;4965409;28;20097;-59
2023/03/10 14:44:36;;;;;;;;;;;;;;;;;;4965378;28;20633;-60
2023/03/10 14:47:02;;;;;;;;;;;;;;;;;;4966169;28;20296;-61
2023/03/10 14:49:27;;;;;;;;;;;;;;;;;;4983498;28;19918;-62
2023/03/10 14:51:52;;;;;;;;;;;;;;;;;;4964141;28;20443;-62
2023/03/10 14:54:20;;;;;;;;;;;;;;;;;;4984849;28;20120;-61
2023/03/10 14:56:48;;;;;;;;;;;;;;;;;;4990001;28;20291;-62
2023/03/10 14:59:15;;;;;;;;;;;;;;;;;;4981075;28;19921;-62
2023/03/10 15:01:41;;;;;;;;;;;;;;;;;;4984119;28;19921;-63
2023/03/10 15:04:06;;;;;;;;;;;;;;;;;;4973447;28;19917;-65
2023/03/10 15:06:34;;;;;;;;;;;;;;;;;;4979382;28;20008;-65
2023/03/10 15:09:02;;;;;;;;;;;;;;;;;;4977416;28;20044;-65
2023/03/10 15:11:27;;;;;;;;;;;;;;;;;;4979808;28;19921;-66
2023/03/10 15:13:52;;;;;;;;;;;;;;;;;;4979688;28;19948;-65
2023/03/10 15:16:20;;;;;;;;;;;;;;;;;;4974392;28;19940;-66
2023/03/10 15:18:47;;;;;;;;;;;;;;;;;;4976611;28;20369;-69
2023/03/10 15:21:16;;;;;;;;;;;;;;;;;;4969189;28;20422;-69
2023/03/10 15:23:44;;;;;;;;;;;;;;;;;;4980015;28;19918;-67
2023/03/10 15:26:09;;;;;;;;;;;;;;;;;;4984812;28;19928;-68
2023/03/10 15:28:35;;;;;;;;;;;;;;;;;;4980627;28;20352;-68
2023/03/10 15:31:00;;;;;;;;;;;;;;;;;;4975553;28;19922;-68
2023/03/10 15:33:25;;;;;;;;;;;;;;;;;;4978927;28;19936;-68
2023/03/10 15:35:52;;;;;;;;;;;;;;;;;;4980003;28;20076;-67
2023/03/10 15:38:17;;;;;;;;;;;;;;;;;;4968441;28;19925;-68
2023/03/10 15:40:42;;;;;;;;;;;;;;;;;;4963542;28;20124;-69
2023/03/10 15:43:08;;;;;;;;;;;;;;;;;;4964713;28;19936;-71
2023/03/10 15:45:36;;;;;;;;;;;;;;;;;;4961351;28;19925;-69
2023/03/10 15:48:06;;;;;;;;;;;;;;;;;;4975228;28;19959;-71
2023/03/10 15:50:32;;;;;;;;;;;;;;;;;;4964068;28;20072;-68
2023/03/10 15:52:57;;;;;;;;;;;;;;;;;;4957023;28;20477;-68
2023/03/10 15:55:22;;;;;;;;;;;;;;;;;;4961793;28;22006;-68
2023/03/10 15:57:50;;;;;;;;;;;;;;;;;;4962041;28;19965;-67
2023/03/10 16:00:15;;;;;;;;;;;;;;;;;;4966980;28;19918;-69
2023/03/10 16:02:41;;;;;;;;;;;;;;;;;;4980992;28;19928;-67
2023/03/10 16:05:08;;;;;;;;;;;;;;;;;;4972919;28;19933;-68
2023/03/10 16:07:36;;;;;;;;;;;;;;;;;;4976238;28;19968;-69
2023/03/10 16:10:02;;;;;;;;;;;;;;;;;;4966530;28;19921;-71
2023/03/10 16:15:44;;;;;;;;;;;;;;;;;;4977340;28;20280;-67
2023/03/10 16:18:12;;;;;;;;;;;;;;;;;;4965344;28;20157;-68
2023/03/10 16:20:37;;;;;;;;;;;;;;;;;;4976423;28;20328;-69
2023/03/10 16:23:02;;;;;;;;;;;;;;;;;;4975577;28;20052;-69
2023/03/10 16:25:30;;;;;;;;;;;;;;;;;;4980148;28;20293;-68
2023/03/10 16:27:58;;;;;;;;;;;;;;;;;;4977527;28;19917;-68
2023/03/10 16:30:23;;;;;;;;;;;;;;;;;;4982463;28;19928;-67
2023/03/10 16:32:48;;;;;;;;;;;;;;;;;;4963716;28;19922;-69
2023/03/10 16:35:14;;;;;;;;;;;;;;;;;;4977645;28;20304;-68
2023/03/10 16:37:39;;;;;;;;;;;;;;;;;;4976178;28;19928;-68
2023/03/10 16:40:05;;;;;;;;;;;;;;;;;;4976584;28;19968;-67
2023/03/10 16:42:35;;;;;;;;;;;;;;;;;;4960629;28;20012;-68
2023/03/10 16:45:02;;;;;;;;;;;;;;;;;;4963143;28;19921;-67
2023/03/10 16:47:28;;;;;;;;;;;;;;;;;;4974141;28;20485;-67
2023/03/10 16:49:53;;;;;;;;;;;;;;;;;;4983921;28;19925;-66
2023/03/10 16:52:18;;;;;;;;;;;;;;;;;;4972345;28;19967;-66
2023/03/10 16:54:45;;;;;;;;;;;;;;;;;;4966076;28;19918;-66
2023/03/10 16:57:11;;;;;;;;;;;;;;;;;;4980048;28;20570;-66
2023/03/10 16:59:36;;;;;;;;;;;;;;;;;;4985138;28;20110;-65